»·PEaware :: N927HS KSBP-KMHV

N927HS :: KSBP-KMHV

FLIGHT INFORMATION

Flight Status: Arrived
Operator: Privately registered:
United States
More flights under this callsign
Pilot: Scott K. (44601)
Aircraft: CIRRUS SR-22
(SR22)
More flights by this aircraft type
Origin: KSBP San Luis Co Regl
United States
Destination: KMHV Mojave
United States
More flights between these airports :: More routes between these airports
Route:
File this flight plan on PilotEdge
Remarks:
Altitude:
(Current/Filed)
7,500ft
Speed:
(Current/Filed)
0kts
Departed: 13-Oct-23 03:39 PM
Arrived: 13-Oct-23 04:36 PM
Distance/Time
Traveled:
122nm/0:57
Distance/Time
To Go:
Arrived

Flight Plot

Page will automatically refresh every two minutes.

Flight plan parsing failed; only flown route is shown


Map Options




Map Legend


Flown Route
Filed Route
Departure Airport
Arrival Airport
Navaid (VOR, NDB)
Fix

Horizontal Profiles

Position Reports

Time Latitude Longitude Heading Altitude Ground
Speed
13-Oct-23 15:34 35.238087 -120.639617 202 215ft 0kts
13-Oct-23 15:35 35.236734 -120.638027 124 215ft 29kts
13-Oct-23 15:36 35.233200 -120.632345 211 215ft 0kts
13-Oct-23 15:37 35.233185 -120.632356 211 215ft 2kts
13-Oct-23 15:38 35.240964 -120.647361 302 596ft 106kts
13-Oct-23 15:39 35.246665 -120.678724 209 2127ft 111kts
13-Oct-23 15:40 35.222142 -120.661038 134 3665ft 113kts
13-Oct-23 15:41 35.208698 -120.627961 94 5204ft 116kts
13-Oct-23 15:42 35.212620 -120.588623 80 6742ft 119kts
13-Oct-23 15:43 35.218489 -120.543835 80 7538ft 166kts
13-Oct-23 15:44 35.221567 -120.482638 92 7528ft 187kts
13-Oct-23 15:45 35.219564 -120.418752 92 7527ft 188kts
13-Oct-23 15:46 35.217565 -120.354784 92 7527ft 188kts
13-Oct-23 15:47 35.215660 -120.292814 92 7525ft 174kts
13-Oct-23 15:48 35.213852 -120.235331 92 7527ft 167kts
13-Oct-23 15:49 35.212048 -120.178524 92 7527ft 166kts
13-Oct-23 15:50 35.210247 -120.121861 92 7527ft 166kts
13-Oct-23 15:51 35.208429 -120.065280 92 7527ft 166kts
13-Oct-23 15:52 35.206602 -120.009088 92 7573ft 165kts
13-Oct-23 15:53 35.204770 -119.952597 92 7573ft 166kts
13-Oct-23 15:54 35.202913 -119.895974 92 7573ft 167kts
13-Oct-23 15:55 35.201017 -119.839089 92 7573ft 167kts
13-Oct-23 15:56 35.199036 -119.782527 92 7573ft 167kts
13-Oct-23 15:57 35.197045 -119.725633 92 7573ft 167kts
13-Oct-23 15:58 35.195073 -119.668948 92 7573ft 167kts
13-Oct-23 15:59 35.193096 -119.612222 92 7573ft 167kts
13-Oct-23 16:00 35.191126 -119.555505 91 7573ft 167kts
13-Oct-23 16:01 35.189169 -119.498854 91 7573ft 167kts
13-Oct-23 16:02 35.187208 -119.442132 91 7573ft 167kts
13-Oct-23 16:03 35.185257 -119.385405 91 7573ft 167kts
13-Oct-23 16:04 35.183313 -119.328812 92 7573ft 167kts
13-Oct-23 16:05 35.181362 -119.272008 92 7573ft 167kts
13-Oct-23 16:06 35.179442 -119.215406 92 7573ft 167kts
13-Oct-23 16:08 35.177569 -119.158705 92 7573ft 167kts
13-Oct-23 16:09 35.175701 -119.101829 92 7573ft 167kts
13-Oct-23 16:10 35.173842 -119.045114 92 7573ft 167kts
13-Oct-23 16:11 35.171987 -118.988527 92 7573ft 167kts
13-Oct-23 16:12 35.170121 -118.931844 92 7573ft 167kts
13-Oct-23 16:13 35.168322 -118.878922 91 8087ft 144kts
13-Oct-23 16:14 35.166505 -118.829905 91 8565ft 145kts
13-Oct-23 16:15 35.172772 -118.780962 80 9198ft 147kts
13-Oct-23 16:16 35.179265 -118.728030 80 9578ft 177kts
13-Oct-23 16:17 35.186897 -118.666379 80 9573ft 187kts
13-Oct-23 16:18 35.194561 -118.602845 81 9499ft 188kts
13-Oct-23 16:19 35.202158 -118.539814 80 9499ft 187kts
13-Oct-23 16:20 35.209767 -118.476790 80 9500ft 187kts
13-Oct-23 16:21 35.217300 -118.413783 80 9500ft 187kts
13-Oct-23 16:22 35.224841 -118.350471 81 9499ft 188kts
13-Oct-23 16:23 35.232358 -118.287105 82 9499ft 188kts
13-Oct-23 16:24 35.239876 -118.223601 80 9499ft 188kts
13-Oct-23 16:25 35.264329 -118.165859 60 9151ft 197kts
13-Oct-23 16:26 35.291139 -118.106114 60 8387ft 203kts
13-Oct-23 16:27 35.317874 -118.046413 60 7538ft 199kts
13-Oct-23 16:28 35.308943 -117.995551 145 7495ft 183kts
13-Oct-23 16:29 35.267010 -117.960153 189 6979ft 181kts
13-Oct-23 16:30 35.225851 -117.986458 209 6997ft 160kts
13-Oct-23 16:31 35.188289 -118.013810 210 6626ft 164kts
13-Oct-23 16:32 35.148638 -118.043038 210 5630ft 166kts
13-Oct-23 16:33 35.114589 -118.079090 231 4684ft 158kts
13-Oct-23 16:34 35.090663 -118.115901 232 4355ft 121kts
13-Oct-23 16:34 35.074817 -118.140562 232 3425ft 90kts
13-Oct-23 16:35 35.062823 -118.159515 230 2777ft 36kts
13-Oct-23 16:37 35.058470 -118.165133 142 2775ft 10kts
13-Oct-23 16:38 35.056973 -118.162729 82 2768ft 0kts
13-Oct-23 16:39 35.056973 -118.162729 82 2768ft 0kts
13-Oct-23 16:39 35.056973 -118.162729 82 2768ft 0kts
13-Oct-23 16:40 35.056973 -118.162729 82 2768ft 0kts

Navigation Log

Ident Type
Flight plan parsing failed, navigation log unavailable